Laoag International Airport
RPLI : now visible

Airfield :











YOU CAN JOIN US ON...

 
LOGIN :

Register | Disclaimer

   EN    FR    IT 

 









Legend :    VFR   Marginal VFR   IFR   Intensive IFR   Very Intensive IFR
Visi :
Ceiling :
>= 8 km
>= 3000ft
5 to 8 km
1000 to 3000 ft
1500m to 5 km
500 to 1000 ft
800 to 1500m
200 to 500 ft
< 800m
< 200 ft
Symbols :   Thunderstorms  Fog  Heavy snow  Heavy precipitations  Wind > 20 kt






- Airport Elevation : 25 ft
- IATA code : LAO


RPLI - Laoag International

CURRENT METAR :
  • 270900Z 23003KT 200V270 7000 -SHRA SCT018 BKN090 30/26 Q1004 RETS NOSIG RMK A2965

EXPIRED METARs :
  • 270800Z 25005KT 210V310 8000 TS VCSH FEW017CB FEW018 BKN090 30/27 Q1004 RESHRA NOSIG RMK A2965 CB NE-ESE, VCSH E
  • 270700Z 26006KT 210V290 8000 TS -SHRA SCT017CB BKN090 30/27 Q1004 NOSIG RMK A2965 CB NE

TAF TAF RPLI
Valid from the 27 at 06:00 until the 28 at 06:00 UTC


270500Z 2706/2806 22005KT 9999 FEW018
TEMPO 2706/2712 22010KT 5000 TSRA SCT017CB BKN090
TEMPO 2803/2806 32008KT 8000 VCSH FEW017CB FEW018 SCT290
RPHI FIR / Asia



MET'MAP, your aeronautical weather chart ! - Copyright ORBIFLY December 2007 - Disclaimer

ORBIFLY MET'MAP TEAM :

Programming & Development : Alexandra Zaïnal
Original concept : Baudouin d'Aumeries
Technical & hardware support : Manuel Goepfert
Assistance : Marc-Olivier Méhu




SOURCES & CREDITS :

   NOAA       Earth
Advisory